KCHD/CHD METAR and TAF weather

Enter ICAO airport designator
Station Type Date Time Source
KCHD METAR 2019/08/25 17:47 UTC NOAA

KCHD 251747Z VRB04KT 10SM SCT180 34/20 A2298


Station Type Date Time Source
KCHD Decoded METAR 2019/08/25 17:47 UTC NOAA

Station name not available
Aug 25, 2019 - 01:47 PM EDT / 2019.08.25 1747 UTC
Wind: Variable at 5 MPH (4 KT):0
Visibility: 10 mile(s):0
Sky conditions: partly cloudy
Temperature: 93 F (34 C)
Heat index: 96.8 F (36.0 C):1
Dew Point: 68 F (20 C)
Relative Humidity: 43%
Pressure (altimeter): 22.98 in. Hg (778 hPa)
ob: KCHD 251747Z VRB04KT 10SM SCT180 34/20 A2298
cycle: 18

Station Type Date Time Source
KCHD TAF UTC NOAA

Error!

Example: see airport list